createdAt,value
2023-03-30T00:02:10.874Z,3.63
2023-03-30T00:04:43.092Z,3.47
2023-03-30T00:07:13.226Z,4.63
2023-03-30T00:09:43.446Z,3.77
2023-03-30T00:12:13.563Z,3.67
2023-03-30T00:14:42.757Z,3.50
2023-03-30T00:17:11.244Z,4.03
2023-03-30T00:19:39.500Z,6.30
2023-03-30T00:22:09.012Z,2.80
2023-03-30T00:24:38.660Z,5.50
2023-03-30T00:27:06.952Z,5.17
2023-03-30T00:29:35.317Z,4.80
2023-03-30T00:32:03.705Z,4.50
2023-03-30T00:34:31.985Z,8.17
2023-03-30T00:37:00.260Z,5.83
2023-03-30T00:39:28.483Z,5.23
2023-03-30T00:41:58.299Z,5.87
2023-03-30T00:45:07.867Z,3.50
2023-03-30T00:47:39.559Z,4.90
2023-03-30T00:50:09.713Z,4.10
2023-03-30T00:52:38.340Z,4.20
2023-03-30T00:55:09.056Z,3.97
2023-03-30T00:57:41.979Z,2.27
2023-03-30T01:00:11.984Z,3.53
2023-03-30T01:02:45.984Z,6.10
2023-03-30T01:05:14.522Z,4.17
2023-03-30T01:07:46.384Z,5.57
2023-03-30T01:10:14.710Z,3.63
2023-03-30T01:12:45.452Z,4.83
2023-03-30T01:15:16.253Z,6.70
2023-03-30T01:18:00.788Z,8.93
2023-03-30T01:21:03.405Z,3.43
2023-03-30T01:24:06.180Z,5.93
2023-03-30T01:26:54.524Z,5.27
2023-03-30T01:29:38.600Z,4.73
2023-03-30T01:32:57.604Z,5.23
2023-03-30T01:35:58.865Z,4.57
2023-03-30T01:39:01.919Z,4.03
2023-03-30T01:41:35.075Z,3.93
2023-03-30T01:44:09.757Z,4.47
2023-03-30T01:46:42.138Z,4.03
2023-03-30T01:49:17.208Z,6.83
2023-03-30T01:51:49.993Z,3.83
2023-03-30T01:54:23.584Z,4.33
2023-03-30T01:56:56.939Z,4.07
2023-03-30T01:59:29.958Z,6.87
2023-03-30T02:02:04.029Z,4.80
2023-03-30T02:04:38.844Z,4.50
2023-03-30T02:07:11.595Z,4.20
2023-03-30T02:09:43.286Z,6.67
2023-03-30T02:12:12.914Z,6.23
2023-03-30T02:14:42.922Z,4.90
2023-03-30T02:17:17.167Z,3.20
2023-03-30T02:19:46.243Z,4.20
2023-03-30T02:22:16.224Z,6.00
2023-03-30T02:24:48.095Z,4.00
2023-03-30T02:27:19.336Z,6.43
2023-03-30T02:29:49.772Z,5.00
2023-03-30T02:32:21.037Z,5.67
2023-03-30T02:35:03.105Z,4.10
2023-03-30T02:37:47.770Z,4.67
2023-03-30T02:40:33.089Z,5.00
2023-03-30T02:43:23.654Z,4.57
2023-03-30T02:45:56.113Z,4.53
2023-03-30T02:48:38.476Z,6.47
2023-03-30T02:51:23.401Z,5.63
2023-03-30T02:54:28.951Z,7.53
2023-03-30T02:57:34.575Z,5.53
2023-03-30T03:00:28.915Z,3.23
2023-03-30T03:03:03.465Z,6.33
2023-03-30T03:05:34.040Z,3.33
2023-03-30T03:08:16.573Z,4.67
2023-03-30T03:10:47.137Z,3.93
2023-03-30T03:13:20.617Z,6.27
2023-03-30T03:15:49.888Z,3.80
2023-03-30T03:18:18.550Z,3.73
2023-03-30T03:20:46.936Z,3.93
2023-03-30T03:23:15.452Z,3.83
2023-03-30T03:25:50.787Z,3.33
2023-03-30T03:28:22.600Z,4.97
2023-03-30T03:30:54.516Z,4.17
2023-03-30T03:33:25.834Z,5.40
2023-03-30T03:36:05.762Z,3.60
2023-03-30T03:38:37.360Z,5.27
2023-03-30T03:41:07.447Z,5.97
2023-03-30T03:43:37.822Z,4.83
2023-03-30T03:46:06.321Z,6.67
2023-03-30T03:48:34.847Z,4.90
2023-03-30T03:51:03.404Z,5.87
2023-03-30T03:53:35.245Z,4.20
2023-03-30T03:56:08.223Z,5.37
2023-03-30T03:58:38.827Z,4.67
2023-03-30T04:01:08.496Z,7.10
2023-03-30T04:03:37.064Z,3.83
2023-03-30T04:06:06.734Z,4.67
2023-03-30T04:08:35.002Z,8.10
2023-03-30T04:11:20.237Z,4.40
2023-03-30T04:14:04.941Z,4.53
2023-03-30T04:16:45.132Z,5.33
2023-03-30T04:19:33.400Z,6.63
2023-03-30T04:22:25.659Z,5.13
2023-03-30T04:25:15.124Z,7.80
2023-03-30T04:28:05.322Z,6.00
2023-03-30T04:31:00.368Z,7.77
2023-03-30T04:33:51.814Z,7.90
2023-03-30T04:36:39.012Z,6.77
2023-03-30T04:39:30.105Z,5.80
2023-03-30T04:42:20.249Z,8.20
2023-03-30T04:45:10.162Z,7.10
2023-03-30T04:47:43.077Z,6.73
2023-03-30T04:50:41.302Z,6.37
2023-03-30T04:53:12.466Z,7.27
2023-03-30T04:55:50.305Z,10.50
2023-03-30T04:58:34.014Z,8.50
2023-03-30T05:01:21.521Z,7.20
2023-03-30T05:04:20.462Z,6.20
2023-03-30T05:06:49.737Z,10.60
2023-03-30T05:09:47.322Z,9.13
2023-03-30T05:12:33.899Z,9.20
2023-03-30T05:15:25.371Z,12.20
2023-03-30T05:18:11.683Z,12.40
2023-03-30T05:21:00.026Z,12.77
2023-03-30T05:23:46.501Z,11.60
2023-03-30T05:26:32.674Z,9.17
2023-03-30T05:29:22.128Z,9.57
2023-03-30T05:32:17.817Z,9.77
2023-03-30T05:35:05.673Z,9.60
2023-03-30T05:37:44.408Z,10.80
2023-03-30T05:40:38.887Z,9.77
2023-03-30T05:43:08.299Z,13.53
2023-03-30T05:45:56.235Z,8.90
2023-03-30T05:48:53.580Z,11.77
2023-03-30T05:51:29.336Z,8.27
2023-03-30T05:54:08.284Z,15.07
2023-03-30T05:56:55.372Z,12.97
2023-03-30T05:59:37.268Z,14.77
2023-03-30T06:02:28.894Z,11.83
2023-03-30T06:05:04.136Z,9.70
2023-03-30T06:07:32.692Z,8.53
2023-03-30T06:10:02.440Z,19.70
2023-03-30T06:12:32.080Z,12.70
2023-03-30T06:15:03.009Z,15.27
2023-03-30T06:17:52.152Z,13.13
2023-03-30T06:20:21.586Z,10.27
2023-03-30T06:22:51.458Z,9.17
2023-03-30T06:25:24.627Z,13.27
2023-03-30T06:27:54.350Z,15.30
2023-03-30T06:30:22.866Z,12.30
2023-03-30T06:32:54.650Z,13.90
2023-03-30T06:35:26.790Z,13.53
2023-03-30T06:37:56.969Z,12.97
2023-03-30T06:40:27.043Z,15.07
2023-03-30T06:42:57.067Z,21.33
2023-03-30T06:45:40.803Z,14.00
2023-03-30T06:48:09.283Z,15.47
2023-03-30T06:50:40.755Z,20.23
2023-03-30T06:53:20.453Z,15.70
2023-03-30T06:55:54.424Z,14.00
2023-03-30T06:58:24.121Z,14.57
2023-03-30T07:00:52.797Z,14.77
2023-03-30T07:03:41.279Z,13.70
2023-03-30T07:06:24.336Z,14.57
2023-03-30T07:08:52.641Z,16.17
2023-03-30T07:11:27.285Z,15.30
2023-03-30T07:13:58.509Z,14.73
2023-03-30T07:16:27.105Z,12.93
2023-03-30T07:18:55.402Z,15.30
2023-03-30T07:21:24.381Z,16.00
2023-03-30T07:23:52.709Z,16.03
2023-03-30T07:26:32.576Z,18.63
2023-03-30T07:29:07.440Z,18.93
2023-03-30T07:31:38.196Z,16.23
2023-03-30T07:34:09.382Z,14.37
2023-03-30T07:36:42.425Z,17.00
2023-03-30T07:39:12.702Z,19.27
2023-03-30T07:41:45.654Z,14.93
2023-03-30T07:44:15.188Z,17.47
2023-03-30T07:46:43.636Z,13.57
2023-03-30T07:49:17.514Z,16.93
2023-03-30T07:51:45.911Z,22.13
2023-03-30T07:54:21.167Z,19.67
2023-03-30T07:57:14.177Z,14.17
2023-03-30T07:59:42.819Z,16.17
2023-03-30T08:02:30.258Z,18.97
2023-03-30T08:05:00.252Z,22.53
2023-03-30T08:07:45.376Z,17.03
2023-03-30T08:10:20.045Z,16.27
2023-03-30T08:12:49.740Z,18.37
2023-03-30T08:15:18.152Z,17.97
2023-03-30T08:17:46.436Z,22.17
2023-03-30T08:20:15.101Z,14.97
2023-03-30T08:22:43.420Z,16.33
2023-03-30T08:25:11.900Z,17.87
2023-03-30T08:27:40.542Z,19.93
2023-03-30T08:30:13.165Z,13.43
2023-03-30T08:32:41.535Z,18.03
2023-03-30T08:35:11.613Z,20.53
2023-03-30T08:37:39.932Z,19.30
2023-03-30T08:40:11.280Z,15.33
2023-03-30T08:42:53.594Z,14.63
2023-03-30T08:45:23.344Z,18.53
2023-03-30T08:47:53.204Z,17.73
2023-03-30T08:50:31.539Z,17.63
2023-03-30T08:53:00.339Z,14.40
2023-03-30T08:55:36.143Z,17.17
2023-03-30T08:58:10.100Z,17.03
2023-03-30T09:00:45.191Z,18.13
2023-03-30T09:03:19.743Z,16.93
2023-03-30T09:05:54.084Z,16.73
2023-03-30T09:08:24.603Z,17.57
2023-03-30T09:10:57.592Z,21.53
2023-03-30T09:13:29.468Z,16.70
2023-03-30T09:16:04.485Z,13.80
2023-03-30T09:18:35.057Z,15.97
2023-03-30T09:21:06.311Z,17.73
2023-03-30T09:23:36.074Z,12.23
2023-03-30T09:26:17.356Z,19.67
2023-03-30T09:28:53.507Z,21.00
2023-03-30T09:31:29.131Z,14.57
2023-03-30T09:34:03.607Z,15.23
2023-03-30T09:36:39.204Z,16.53
2023-03-30T09:39:11.866Z,16.13
2023-03-30T09:41:52.743Z,14.17
2023-03-30T09:44:27.255Z,12.63
2023-03-30T09:47:00.901Z,15.27
2023-03-30T09:49:30.580Z,15.23
2023-03-30T09:52:04.499Z,13.77
2023-03-30T09:54:37.893Z,13.83
2023-03-30T09:57:06.621Z,15.47
2023-03-30T09:59:36.455Z,15.63
2023-03-30T10:02:20.840Z,11.00
2023-03-30T10:04:58.322Z,11.40
2023-03-30T10:07:29.009Z,11.67
2023-03-30T10:10:00.318Z,12.30
2023-03-30T10:12:30.106Z,11.60
2023-03-30T10:15:01.859Z,11.40
2023-03-30T10:17:32.209Z,13.70
2023-03-30T10:20:27.269Z,10.83
2023-03-30T10:22:57.514Z,10.70
2023-03-30T10:25:29.680Z,13.07
2023-03-30T10:28:03.005Z,10.57
2023-03-30T10:30:33.327Z,9.70
2023-03-30T10:33:04.117Z,11.43
2023-03-30T10:35:36.895Z,10.67
2023-03-30T10:38:07.643Z,13.80
2023-03-30T10:40:37.820Z,9.80
2023-03-30T10:43:12.034Z,12.00
2023-03-30T10:45:45.861Z,10.73
2023-03-30T10:48:29.916Z,12.50
2023-03-30T10:51:08.788Z,9.77
2023-03-30T10:53:45.807Z,13.40
2023-03-30T10:56:26.363Z,9.53
2023-03-30T10:59:18.750Z,13.13
2023-03-30T11:01:58.537Z,12.63
2023-03-30T11:04:35.258Z,20.73
2023-03-30T11:07:06.538Z,12.38
2023-03-30T11:09:41.034Z,13.38
2023-03-30T11:12:15.117Z,10.15
2023-03-30T11:14:50.661Z,14.90
2023-03-30T11:17:23.961Z,10.38
2023-03-30T11:19:56.925Z,14.95
2023-03-30T11:22:34.317Z,11.30
2023-03-30T11:25:05.222Z,13.63
2023-03-30T11:27:36.481Z,14.00
2023-03-30T11:30:12.549Z,12.90
2023-03-30T11:32:45.426Z,13.98
2023-03-30T11:35:20.043Z,10.20
2023-03-30T11:37:54.357Z,18.10
2023-03-30T11:40:27.329Z,14.75
2023-03-30T11:42:56.618Z,13.43
2023-03-30T11:45:44.847Z,20.40
2023-03-30T11:48:49.293Z,16.75
2023-03-30T11:51:31.732Z,11.90
2023-03-30T11:54:08.807Z,15.27
2023-03-30T11:56:40.411Z,15.18
2023-03-30T11:59:17.060Z,13.98
2023-03-30T12:02:06.826Z,15.88
2023-03-30T12:04:45.315Z,14.55
2023-03-30T12:07:26.031Z,13.30
2023-03-30T12:09:57.244Z,15.00
2023-03-30T12:12:33.778Z,11.93
2023-03-30T12:15:11.471Z,17.67
2023-03-30T12:17:48.628Z,15.25
2023-03-30T12:20:33.159Z,13.68
2023-03-30T12:23:12.501Z,20.52
2023-03-30T12:25:55.510Z,13.40
2023-03-30T12:28:35.770Z,17.17
2023-03-30T12:31:16.069Z,14.15
2023-03-30T12:33:49.808Z,13.55
2023-03-30T12:36:34.404Z,16.02
2023-03-30T12:39:06.871Z,12.60
2023-03-30T12:41:43.291Z,12.73
2023-03-30T12:44:36.628Z,13.82
2023-03-30T12:47:18.439Z,16.30
2023-03-30T12:49:59.539Z,15.45
2023-03-30T12:52:39.604Z,13.52
2023-03-30T12:55:28.942Z,13.10
2023-03-30T12:58:08.862Z,11.70
2023-03-30T13:00:55.715Z,16.60
2023-03-30T13:03:38.462Z,12.27
2023-03-30T13:06:21.978Z,8.05
2023-03-30T13:08:55.622Z,9.73
2023-03-30T13:11:25.415Z,9.80
2023-03-30T13:13:56.386Z,8.18
2023-03-30T13:17:01.872Z,12.75
2023-03-30T13:19:42.817Z,10.07
2023-03-30T13:22:28.202Z,7.88
2023-03-30T13:24:59.486Z,7.57
2023-03-30T13:27:33.902Z,10.02
2023-03-30T13:30:06.401Z,7.57
2023-03-30T13:32:49.680Z,8.13
2023-03-30T13:35:33.088Z,11.40
2023-03-30T13:38:22.252Z,7.22
2023-03-30T13:41:05.179Z,9.25
2023-03-30T13:43:49.550Z,11.43
2023-03-30T13:46:28.688Z,7.55
2023-03-30T13:49:07.883Z,6.35
2023-03-30T13:51:39.108Z,7.28
2023-03-30T13:54:15.050Z,10.13
2023-03-30T13:56:49.651Z,9.50
2023-03-30T13:59:22.559Z,7.65
2023-03-30T14:01:55.128Z,11.00
2023-03-30T14:04:24.124Z,8.43
2023-03-30T14:06:54.276Z,9.38
2023-03-30T14:09:24.376Z,6.07
2023-03-30T14:11:55.406Z,9.02
2023-03-30T14:14:28.225Z,8.13
2023-03-30T14:16:58.587Z,9.20
2023-03-30T14:19:29.213Z,8.48
2023-03-30T14:22:01.246Z,9.73
2023-03-30T14:24:31.599Z,9.93
2023-03-30T14:27:04.055Z,8.80
2023-03-30T14:29:33.824Z,7.30
2023-03-30T14:32:09.084Z,10.82
2023-03-30T14:34:38.155Z,6.68
2023-03-30T14:37:09.274Z,8.30
2023-03-30T14:39:42.699Z,7.00
2023-03-30T14:42:16.613Z,7.15
2023-03-30T14:44:48.106Z,10.88
2023-03-30T14:47:19.025Z,11.13
2023-03-30T14:49:48.136Z,10.30
2023-03-30T14:52:19.046Z,10.20
2023-03-30T14:55:02.414Z,6.50
2023-03-30T14:57:38.825Z,6.88
2023-03-30T15:00:21.364Z,6.45
2023-03-30T15:02:53.286Z,6.43
2023-03-30T15:05:24.415Z,5.22
2023-03-30T15:07:54.288Z,4.85
2023-03-30T15:10:27.358Z,5.90
2023-03-30T15:12:58.325Z,5.95
2023-03-30T15:15:32.907Z,5.30
2023-03-30T15:18:03.603Z,6.90
2023-03-30T15:20:33.280Z,4.78
2023-03-30T15:23:01.998Z,7.32
2023-03-30T15:25:33.755Z,7.80
2023-03-30T15:28:04.827Z,8.63
2023-03-30T15:30:36.723Z,7.30
2023-03-30T15:33:07.499Z,4.72
2023-03-30T15:35:37.536Z,6.13
2023-03-30T15:38:15.449Z,8.63
2023-03-30T15:40:45.152Z,7.90
2023-03-30T15:43:19.163Z,5.82
2023-03-30T15:45:52.088Z,7.70
2023-03-30T15:48:26.848Z,9.63
2023-03-30T15:51:00.201Z,8.52
2023-03-30T15:53:40.341Z,10.63
2023-03-30T15:56:14.101Z,8.00
2023-03-30T15:58:43.428Z,11.60
2023-03-30T16:01:15.898Z,11.32
2023-03-30T16:03:52.312Z,7.55
2023-03-30T16:06:21.860Z,9.90
2023-03-30T16:08:50.160Z,13.38
2023-03-30T16:11:20.610Z,9.95
2023-03-30T16:13:50.275Z,10.73
2023-03-30T16:16:19.904Z,9.80
2023-03-30T16:18:48.829Z,11.83
2023-03-30T16:21:18.496Z,14.07
2023-03-30T16:23:46.808Z,10.65
2023-03-30T16:26:15.070Z,13.87
2023-03-30T16:28:43.515Z,9.63
2023-03-30T16:31:18.027Z,12.50
2023-03-30T16:33:47.791Z,9.40
2023-03-30T16:36:18.246Z,8.57
2023-03-30T16:38:47.277Z,10.68
2023-03-30T16:41:19.319Z,12.37
2023-03-30T16:43:47.977Z,9.97
2023-03-30T16:46:17.615Z,10.77
2023-03-30T16:48:47.483Z,12.13
2023-03-30T16:51:16.560Z,8.00
2023-03-30T16:53:44.835Z,10.20
2023-03-30T16:56:17.406Z,10.90
2023-03-30T16:58:46.035Z,11.93
2023-03-30T17:01:18.349Z,9.57
2023-03-30T17:03:48.641Z,8.80
2023-03-30T17:06:17.187Z,9.67
2023-03-30T17:08:45.961Z,11.00
2023-03-30T17:11:14.451Z,12.98
2023-03-30T17:13:43.210Z,9.98
2023-03-30T17:16:13.568Z,15.43
2023-03-30T17:18:42.183Z,6.77
2023-03-30T17:21:16.550Z,10.83
2023-03-30T17:23:47.751Z,8.70
2023-03-30T17:26:16.694Z,8.13
2023-03-30T17:28:45.054Z,10.20
2023-03-30T17:31:17.492Z,11.17
2023-03-30T17:33:46.103Z,13.57
2023-03-30T17:36:19.013Z,11.63
2023-03-30T17:38:47.712Z,11.17
2023-03-30T17:41:17.114Z,6.90
2023-03-30T17:43:45.476Z,10.30
2023-03-30T17:46:15.170Z,10.57
2023-03-30T17:48:43.991Z,15.30
2023-03-30T17:51:12.259Z,14.23
2023-03-30T17:53:41.950Z,9.60
2023-03-30T17:56:13.201Z,17.13
2023-03-30T17:58:41.601Z,15.27
2023-03-30T18:01:12.435Z,13.83
2023-03-30T18:03:41.137Z,13.33
2023-03-30T18:06:12.283Z,13.20
2023-03-30T18:08:43.065Z,16.27
2023-03-30T18:11:11.459Z,14.60
2023-03-30T18:13:39.926Z,14.30
2023-03-30T18:16:08.533Z,13.03
2023-03-30T18:18:37.229Z,15.67
2023-03-30T18:21:06.727Z,11.87
2023-03-30T18:23:35.461Z,18.93
2023-03-30T18:26:10.311Z,12.37
2023-03-30T18:28:42.429Z,14.13
2023-03-30T18:31:11.207Z,15.87
2023-03-30T18:33:40.529Z,12.03
2023-03-30T18:36:12.586Z,13.73
2023-03-30T18:38:42.109Z,12.03
2023-03-30T18:41:13.333Z,14.17
2023-03-30T18:43:41.815Z,19.00
2023-03-30T18:46:13.839Z,14.73
2023-03-30T18:48:42.403Z,15.67
2023-03-30T18:51:12.211Z,14.10
2023-03-30T18:53:40.742Z,15.00
2023-03-30T18:56:13.675Z,13.13
2023-03-30T18:58:43.049Z,12.87
2023-03-30T19:01:13.353Z,14.67
2023-03-30T19:03:42.830Z,11.77
2023-03-30T19:06:14.104Z,15.37
2023-03-30T19:08:43.750Z,9.50
2023-03-30T19:11:15.302Z,16.83
2023-03-30T19:13:43.782Z,18.83
2023-03-30T19:16:11.994Z,14.43
2023-03-30T19:18:40.516Z,16.07
2023-03-30T19:21:13.820Z,17.57
2023-03-30T19:23:42.263Z,8.37
2023-03-30T19:26:11.109Z,11.63
2023-03-30T19:28:41.189Z,11.60
2023-03-30T19:31:13.436Z,10.87
2023-03-30T19:33:42.681Z,12.77
2023-03-30T19:36:11.546Z,17.13
2023-03-30T19:38:40.103Z,10.50
2023-03-30T19:41:08.692Z,13.03
2023-03-30T19:43:37.007Z,11.70
2023-03-30T19:46:08.707Z,10.27
2023-03-30T19:48:37.089Z,15.07
2023-03-30T19:51:05.722Z,10.37
2023-03-30T19:53:34.153Z,10.87
2023-03-30T19:56:02.461Z,16.07
2023-03-30T19:58:30.692Z,12.20
2023-03-30T20:00:58.954Z,11.77
2023-03-30T20:03:30.201Z,13.00
2023-03-30T20:05:58.650Z,10.83
2023-03-30T20:08:26.869Z,11.20
2023-03-30T20:10:57.078Z,11.60
2023-03-30T20:13:27.364Z,10.10
2023-03-30T20:15:56.387Z,13.53
2023-03-30T20:18:24.761Z,8.87
2023-03-30T20:20:54.410Z,10.47
2023-03-30T20:23:22.709Z,11.27
2023-03-30T20:25:52.622Z,11.93
2023-03-30T20:28:21.126Z,12.57
2023-03-30T20:30:49.415Z,9.73
2023-03-30T20:33:18.734Z,10.33
2023-03-30T20:35:47.134Z,9.13
2023-03-30T20:38:16.762Z,11.43
2023-03-30T20:40:54.312Z,10.17
2023-03-30T20:43:25.968Z,11.23
2023-03-30T20:46:02.140Z,9.50
2023-03-30T20:48:33.609Z,8.90
2023-03-30T20:51:03.819Z,8.53
2023-03-30T20:53:35.151Z,11.37
2023-03-30T20:56:05.201Z,10.77
2023-03-30T20:58:33.495Z,9.07
2023-03-30T21:01:01.840Z,11.60
2023-03-30T21:03:30.249Z,10.33
2023-03-30T21:06:03.347Z,8.53
2023-03-30T21:08:34.667Z,12.30
2023-03-30T21:11:03.697Z,7.77
2023-03-30T21:13:32.108Z,8.93
2023-03-30T21:16:01.762Z,10.10
2023-03-30T21:18:30.568Z,12.10
2023-03-30T21:20:59.103Z,8.17
2023-03-30T21:23:27.463Z,10.03
2023-03-30T21:25:59.093Z,11.07
2023-03-30T21:28:28.566Z,11.17
2023-03-30T21:30:58.148Z,13.27
2023-03-30T21:33:27.828Z,14.03
2023-03-30T21:35:57.774Z,12.70
2023-03-30T21:38:27.449Z,9.97
2023-03-30T21:40:58.984Z,11.03
2023-03-30T21:43:30.841Z,12.03
2023-03-30T21:46:00.539Z,10.07
2023-03-30T21:48:31.351Z,13.00
2023-03-30T21:51:00.601Z,11.03
2023-03-30T21:53:30.251Z,9.83
2023-03-30T21:56:00.662Z,10.73
2023-03-30T21:58:29.630Z,7.57
2023-03-30T22:01:10.686Z,11.10
2023-03-30T22:03:40.738Z,9.07
2023-03-30T22:06:12.848Z,10.57
2023-03-30T22:08:41.356Z,11.73
2023-03-30T22:11:14.635Z,12.40
2023-03-30T22:13:42.870Z,10.93
2023-03-30T22:16:13.740Z,10.00
2023-03-30T22:18:42.428Z,9.17
2023-03-30T22:21:14.509Z,9.27
2023-03-30T22:23:42.840Z,7.47
2023-03-30T22:26:12.913Z,7.60
2023-03-30T22:28:42.011Z,6.23
2023-03-30T22:31:11.574Z,9.23
2023-03-30T22:33:39.952Z,11.17
2023-03-30T22:36:17.289Z,10.47
2023-03-30T22:38:45.725Z,11.60
2023-03-30T22:41:15.979Z,11.20
2023-03-30T22:43:44.349Z,7.93
2023-03-30T22:46:12.615Z,9.30
2023-03-30T22:48:42.096Z,9.67
2023-03-30T22:51:14.143Z,7.50
2023-03-30T22:53:42.654Z,9.73
2023-03-30T22:56:11.794Z,7.30
2023-03-30T22:58:41.514Z,7.97
2023-03-30T23:01:10.401Z,8.10
2023-03-30T23:03:39.309Z,8.77
2023-03-30T23:06:09.380Z,9.97
2023-03-30T23:08:39.213Z,10.03
2023-03-30T23:11:08.275Z,11.33
2023-03-30T23:13:38.216Z,10.07
2023-03-30T23:16:09.016Z,9.77
2023-03-30T23:18:37.880Z,9.40
2023-03-30T23:21:07.435Z,12.17
2023-03-30T23:23:36.776Z,10.33
2023-03-30T23:26:08.274Z,11.20
2023-03-30T23:28:38.002Z,9.90
2023-03-30T23:31:12.135Z,11.83
2023-03-30T23:33:41.087Z,8.63
2023-03-30T23:36:13.430Z,7.97
2023-03-30T23:38:42.056Z,9.73
2023-03-30T23:41:13.325Z,7.07
2023-03-30T23:43:41.731Z,12.33
2023-03-30T23:46:11.670Z,9.57
2023-03-30T23:48:40.114Z,11.17
2023-03-30T23:51:08.716Z,9.27
2023-03-30T23:53:40.122Z,14.17
2023-03-30T23:56:13.021Z,12.37
2023-03-30T23:58:42.164Z,8.80
